sensor_id;sensor_type;location;lat;lon;timestamp;temperature;humidity
29855;DHT22;16733;48.738;9.106;2023-03-01T00:00:27;-0.10;99.90
29855;DHT22;16733;48.738;9.106;2023-03-01T00:02:53;0.00;99.90
29855;DHT22;16733;48.738;9.106;2023-03-01T00:05:18;0.00;99.90
29855;DHT22;16733;48.738;9.106;2023-03-01T00:07:44;0.00;99.90
29855;DHT22;16733;48.738;9.106;2023-03-01T00:10:10;0.00;99.90
29855;DHT22;16733;48.738;9.106;2023-03-01T00:12:36;0.00;99.90
29855;DHT22;16733;48.738;9.106;2023-03-01T00:15:02;0.00;99.90
29855;DHT22;16733;48.738;9.106;2023-03-01T00:17:30;0.00;99.90
29855;DHT22;16733;48.738;9.106;2023-03-01T00:19:55;0.00;99.90
29855;DHT22;16733;48.738;9.106;2023-03-01T00:22:21;-0.10;99.90
29855;DHT22;16733;48.738;9.106;2023-03-01T00:24:46;-0.10;99.90
29855;DHT22;16733;48.738;9.106;2023-03-01T00:27:12;-0.10;99.90
29855;DHT22;16733;48.738;9.106;2023-03-01T00:29:37;-0.10;99.90
29855;DHT22;16733;48.738;9.106;2023-03-01T00:32:03;-0.20;99.90
29855;DHT22;16733;48.738;9.106;2023-03-01T00:34:29;-0.20;99.90
29855;DHT22;16733;48.738;9.106;2023-03-01T00:36:54;-0.20;99.90
29855;DHT22;16733;48.738;9.106;2023-03-01T00:39:20;-0.20;99.90
29855;DHT22;16733;48.738;9.106;2023-03-01T00:41:45;-0.30;99.90
29855;DHT22;16733;48.738;9.106;2023-03-01T00:44:11;-0.30;99.90
29855;DHT22;16733;48.738;9.106;2023-03-01T00:46:37;-0.30;99.90
29855;DHT22;16733;48.738;9.106;2023-03-01T00:49:03;-0.30;99.90
29855;DHT22;16733;48.738;9.106;2023-03-01T00:51:30;-0.30;99.90
29855;DHT22;16733;48.738;9.106;2023-03-01T00:53:59;-0.30;99.90
29855;DHT22;16733;48.738;9.106;2023-03-01T00:56:25;-0.30;99.90
29855;DHT22;16733;48.738;9.106;2023-03-01T00:58:51;-0.40;99.90
29855;DHT22;16733;48.738;9.106;2023-03-01T01:01:35;-0.40;99.90
29855;DHT22;16733;48.738;9.106;2023-03-01T01:04:06;-0.40;99.90
29855;DHT22;16733;48.738;9.106;2023-03-01T01:06:36;-0.40;99.90
29855;DHT22;16733;48.738;9.106;2023-03-01T01:09:04;-0.40;99.90
29855;DHT22;16733;48.738;9.106;2023-03-01T01:11:30;-0.40;99.90
29855;DHT22;16733;48.738;9.106;2023-03-01T01:13:56;-0.50;99.90
29855;DHT22;16733;48.738;9.106;2023-03-01T01:16:23;-0.50;99.90
29855;DHT22;16733;48.738;9.106;2023-03-01T01:18:50;-0.50;99.90
29855;DHT22;16733;48.738;9.106;2023-03-01T01:21:17;-0.50;99.90
29855;DHT22;16733;48.738;9.106;2023-03-01T01:23:45;-0.60;99.90
29855;DHT22;16733;48.738;9.106;2023-03-01T01:26:13;-0.60;99.90
29855;DHT22;16733;48.738;9.106;2023-03-01T01:28:39;-0.70;99.90
29855;DHT22;16733;48.738;9.106;2023-03-01T01:31:06;-0.70;99.90
29855;DHT22;16733;48.738;9.106;2023-03-01T01:33:31;-0.80;99.90
29855;DHT22;16733;48.738;9.106;2023-03-01T01:35:57;-0.80;99.90
29855;DHT22;16733;48.738;9.106;2023-03-01T01:38:23;-0.80;99.90
29855;DHT22;16733;48.738;9.106;2023-03-01T01:40:49;-0.90;99.90
29855;DHT22;16733;48.738;9.106;2023-03-01T01:43:24;-0.90;99.90
29855;DHT22;16733;48.738;9.106;2023-03-01T01:45:50;-0.90;99.90
29855;DHT22;16733;48.738;9.106;2023-03-01T01:48:22;-1.00;99.90
29855;DHT22;16733;48.738;9.106;2023-03-01T01:50:55;-1.00;99.90
29855;DHT22;16733;48.738;9.106;2023-03-01T01:53:23;-1.00;99.90
29855;DHT22;16733;48.738;9.106;2023-03-01T01:55:56;-1.00;99.90
29855;DHT22;16733;48.738;9.106;2023-03-01T01:58:25;-1.00;99.90
29855;DHT22;16733;48.738;9.106;2023-03-01T02:00:51;-1.10;99.90
29855;DHT22;16733;48.738;9.106;2023-03-01T02:03:22;-1.00;99.90
29855;DHT22;16733;48.738;9.106;2023-03-01T02:08:19;-0.90;99.90
29855;DHT22;16733;48.738;9.106;2023-03-01T02:10:45;-0.80;99.90
29855;DHT22;16733;48.738;9.106;2023-03-01T02:13:12;-0.80;99.90
29855;DHT22;16733;48.738;9.106;2023-03-01T02:15:39;-0.70;99.90
29855;DHT22;16733;48.738;9.106;2023-03-01T02:18:07;-0.70;99.90
29855;DHT22;16733;48.738;9.106;2023-03-01T02:20:49;-0.60;99.90
29855;DHT22;16733;48.738;9.106;2023-03-01T02:23:16;-0.60;99.90
29855;DHT22;16733;48.738;9.106;2023-03-01T02:25:55;-0.60;99.90
29855;DHT22;16733;48.738;9.106;2023-03-01T02:30:50;-0.50;99.90
29855;DHT22;16733;48.738;9.106;2023-03-01T02:33:36;-0.50;99.90
29855;DHT22;16733;48.738;9.106;2023-03-01T02:37:20;-0.40;99.90
29855;DHT22;16733;48.738;9.106;2023-03-01T02:39:59;-0.50;99.90
29855;DHT22;16733;48.738;9.106;2023-03-01T02:42:33;-0.40;99.90
29855;DHT22;16733;48.738;9.106;2023-03-01T02:45:00;-0.40;99.90
29855;DHT22;16733;48.738;9.106;2023-03-01T02:47:26;-0.40;99.90
29855;DHT22;16733;48.738;9.106;2023-03-01T02:49:51;-0.40;99.90
29855;DHT22;16733;48.738;9.106;2023-03-01T02:57:27;-0.20;99.90
29855;DHT22;16733;48.738;9.106;2023-03-01T02:59:55;-0.20;99.90
29855;DHT22;16733;48.738;9.106;2023-03-01T03:02:27;-0.20;99.90
29855;DHT22;16733;48.738;9.106;2023-03-01T03:05:29;-0.20;99.90
29855;DHT22;16733;48.738;9.106;2023-03-01T03:07:56;-0.20;99.90
29855;DHT22;16733;48.738;9.106;2023-03-01T03:10:25;-0.30;99.90
29855;DHT22;16733;48.738;9.106;2023-03-01T03:12:56;-0.30;99.90
29855;DHT22;16733;48.738;9.106;2023-03-01T03:15:22;-0.30;99.90
29855;DHT22;16733;48.738;9.106;2023-03-01T03:17:48;-0.30;99.90
29855;DHT22;16733;48.738;9.106;2023-03-01T03:20:16;-0.20;99.90
29855;DHT22;16733;48.738;9.106;2023-03-01T03:22:45;-0.30;99.90
29855;DHT22;16733;48.738;9.106;2023-03-01T03:25:12;-0.20;99.90
29855;DHT22;16733;48.738;9.106;2023-03-01T03:27:39;-0.20;99.90
29855;DHT22;16733;48.738;9.106;2023-03-01T03:30:07;-0.20;99.90
29855;DHT22;16733;48.738;9.106;2023-03-01T03:32:35;-0.30;99.90
29855;DHT22;16733;48.738;9.106;2023-03-01T03:35:02;-0.20;99.90
29855;DHT22;16733;48.738;9.106;2023-03-01T03:37:34;-0.20;99.90
29855;DHT22;16733;48.738;9.106;2023-03-01T03:40:18;-0.30;99.90
29855;DHT22;16733;48.738;9.106;2023-03-01T03:42:44;-0.30;99.90
29855;DHT22;16733;48.738;9.106;2023-03-01T03:45:09;-0.20;99.90
29855;DHT22;16733;48.738;9.106;2023-03-01T03:47:35;-0.30;99.90
29855;DHT22;16733;48.738;9.106;2023-03-01T03:50:00;-0.20;99.90
29855;DHT22;16733;48.738;9.106;2023-03-01T03:52:26;-0.20;99.90
29855;DHT22;16733;48.738;9.106;2023-03-01T03:54:51;-0.20;99.90
29855;DHT22;16733;48.738;9.106;2023-03-01T03:57:17;-0.20;99.90
29855;DHT22;16733;48.738;9.106;2023-03-01T03:59:42;-0.20;99.90
29855;DHT22;16733;48.738;9.106;2023-03-01T04:02:08;-0.10;99.90
29855;DHT22;16733;48.738;9.106;2023-03-01T04:04:34;-0.10;99.90
29855;DHT22;16733;48.738;9.106;2023-03-01T04:06:59;-0.10;99.90
29855;DHT22;16733;48.738;9.106;2023-03-01T04:09:25;-0.10;99.90
29855;DHT22;16733;48.738;9.106;2023-03-01T04:11:51;-0.10;99.90
29855;DHT22;16733;48.738;9.106;2023-03-01T04:14:17;-0.10;99.90
29855;DHT22;16733;48.738;9.106;2023-03-01T04:16:42;-0.10;99.90
29855;DHT22;16733;48.738;9.106;2023-03-01T04:19:08;-0.10;99.90
29855;DHT22;16733;48.738;9.106;2023-03-01T04:21:34;-0.10;99.90
29855;DHT22;16733;48.738;9.106;2023-03-01T04:24:01;-0.10;99.90
29855;DHT22;16733;48.738;9.106;2023-03-01T04:26:29;-0.10;99.90
29855;DHT22;16733;48.738;9.106;2023-03-01T04:28:55;-0.10;99.90
29855;DHT22;16733;48.738;9.106;2023-03-01T04:31:20;0.00;99.90
29855;DHT22;16733;48.738;9.106;2023-03-01T04:33:55;0.00;99.90
29855;DHT22;16733;48.738;9.106;2023-03-01T04:36:23;0.00;99.90
29855;DHT22;16733;48.738;9.106;2023-03-01T04:38:49;0.00;99.90
29855;DHT22;16733;48.738;9.106;2023-03-01T04:41:19;0.00;99.90
29855;DHT22;16733;48.738;9.106;2023-03-01T04:43:46;0.00;99.90
29855;DHT22;16733;48.738;9.106;2023-03-01T04:46:13;0.00;99.90
29855;DHT22;16733;48.738;9.106;2023-03-01T04:48:41;-0.10;99.90
29855;DHT22;16733;48.738;9.106;2023-03-01T04:51:07;-0.10;99.90
29855;DHT22;16733;48.738;9.106;2023-03-01T04:53:34;-0.10;99.90
29855;DHT22;16733;48.738;9.106;2023-03-01T04:56:03;-0.10;99.90
29855;DHT22;16733;48.738;9.106;2023-03-01T04:58:29;-0.10;99.90
29855;DHT22;16733;48.738;9.106;2023-03-01T05:00:55;-0.10;99.90
29855;DHT22;16733;48.738;9.106;2023-03-01T05:03:21;-0.10;99.90
29855;DHT22;16733;48.738;9.106;2023-03-01T05:05:49;-0.10;99.90
29855;DHT22;16733;48.738;9.106;2023-03-01T05:08:15;-0.10;99.90
29855;DHT22;16733;48.738;9.106;2023-03-01T05:10:50;-0.10;99.90
29855;DHT22;16733;48.738;9.106;2023-03-01T05:13:17;-0.10;99.90
29855;DHT22;16733;48.738;9.106;2023-03-01T05:15:57;-0.10;99.90
29855;DHT22;16733;48.738;9.106;2023-03-01T05:18:24;0.00;99.90
29855;DHT22;16733;48.738;9.106;2023-03-01T05:21:00;0.00;99.90
29855;DHT22;16733;48.738;9.106;2023-03-01T05:23:26;0.00;99.90
29855;DHT22;16733;48.738;9.106;2023-03-01T05:25:51;0.00;99.90
29855;DHT22;16733;48.738;9.106;2023-03-01T05:28:18;0.00;99.90
29855;DHT22;16733;48.738;9.106;2023-03-01T05:30:45;0.00;99.90
29855;DHT22;16733;48.738;9.106;2023-03-01T05:33:10;0.00;99.90
29855;DHT22;16733;48.738;9.106;2023-03-01T05:35:42;0.00;99.90
29855;DHT22;16733;48.738;9.106;2023-03-01T05:38:09;0.00;99.90
29855;DHT22;16733;48.738;9.106;2023-03-01T05:40:39;0.00;99.90
29855;DHT22;16733;48.738;9.106;2023-03-01T05:43:05;0.00;99.90
29855;DHT22;16733;48.738;9.106;2023-03-01T05:45:31;0.00;99.90
29855;DHT22;16733;48.738;9.106;2023-03-01T05:48:00;0.00;99.90
29855;DHT22;16733;48.738;9.106;2023-03-01T05:50:28;0.00;99.90
29855;DHT22;16733;48.738;9.106;2023-03-01T05:53:02;0.00;99.90
29855;DHT22;16733;48.738;9.106;2023-03-01T05:55:30;0.00;99.90
29855;DHT22;16733;48.738;9.106;2023-03-01T05:58:01;0.00;99.90
29855;DHT22;16733;48.738;9.106;2023-03-01T06:00:28;0.00;99.90
29855;DHT22;16733;48.738;9.106;2023-03-01T06:02:55;0.10;99.90
29855;DHT22;16733;48.738;9.106;2023-03-01T06:05:22;0.10;99.90
29855;DHT22;16733;48.738;9.106;2023-03-01T06:07:48;0.00;99.90
29855;DHT22;16733;48.738;9.106;2023-03-01T06:10:14;0.10;99.90
29855;DHT22;16733;48.738;9.106;2023-03-01T06:12:41;0.10;99.90
29855;DHT22;16733;48.738;9.106;2023-03-01T06:15:08;0.10;99.90
29855;DHT22;16733;48.738;9.106;2023-03-01T06:17:36;0.10;99.90
29855;DHT22;16733;48.738;9.106;2023-03-01T06:20:06;0.10;99.90
29855;DHT22;16733;48.738;9.106;2023-03-01T06:22:33;0.10;99.90
29855;DHT22;16733;48.738;9.106;2023-03-01T06:24:58;0.10;99.90
29855;DHT22;16733;48.738;9.106;2023-03-01T06:27:24;0.20;99.90
29855;DHT22;16733;48.738;9.106;2023-03-01T06:29:49;0.20;99.90
29855;DHT22;16733;48.738;9.106;2023-03-01T06:32:15;0.30;99.90
29855;DHT22;16733;48.738;9.106;2023-03-01T06:34:41;0.30;99.90
29855;DHT22;16733;48.738;9.106;2023-03-01T06:37:07;0.30;99.90
29855;DHT22;16733;48.738;9.106;2023-03-01T06:39:36;0.30;99.90
29855;DHT22;16733;48.738;9.106;2023-03-01T06:42:02;0.40;99.90
29855;DHT22;16733;48.738;9.106;2023-03-01T06:44:27;0.40;99.90
29855;DHT22;16733;48.738;9.106;2023-03-01T06:46:53;0.30;99.90
29855;DHT22;16733;48.738;9.106;2023-03-01T06:49:19;0.30;99.90
29855;DHT22;16733;48.738;9.106;2023-03-01T06:51:45;0.30;99.90
29855;DHT22;16733;48.738;9.106;2023-03-01T06:54:11;0.30;99.90
29855;DHT22;16733;48.738;9.106;2023-03-01T06:56:37;0.30;99.90
29855;DHT22;16733;48.738;9.106;2023-03-01T06:59:03;0.30;99.90
29855;DHT22;16733;48.738;9.106;2023-03-01T07:01:31;0.20;99.90
29855;DHT22;16733;48.738;9.106;2023-03-01T07:03:57;0.20;99.90
29855;DHT22;16733;48.738;9.106;2023-03-01T07:06:23;0.20;99.90
29855;DHT22;16733;48.738;9.106;2023-03-01T07:08:48;0.20;99.90
29855;DHT22;16733;48.738;9.106;2023-03-01T07:11:15;0.20;99.90
29855;DHT22;16733;48.738;9.106;2023-03-01T07:13:41;0.20;99.90
29855;DHT22;16733;48.738;9.106;2023-03-01T07:16:07;0.20;99.90
29855;DHT22;16733;48.738;9.106;2023-03-01T07:18:33;0.20;99.90
29855;DHT22;16733;48.738;9.106;2023-03-01T07:21:04;0.10;99.90
29855;DHT22;16733;48.738;9.106;2023-03-01T07:23:30;0.10;99.90
29855;DHT22;16733;48.738;9.106;2023-03-01T07:25:55;0.10;99.90
29855;DHT22;16733;48.738;9.106;2023-03-01T07:28:23;0.10;99.90
29855;DHT22;16733;48.738;9.106;2023-03-01T07:30:48;0.00;99.90
29855;DHT22;16733;48.738;9.106;2023-03-01T07:33:14;0.10;99.90
29855;DHT22;16733;48.738;9.106;2023-03-01T07:35:40;0.10;99.90
29855;DHT22;16733;48.738;9.106;2023-03-01T07:38:05;0.20;99.90
29855;DHT22;16733;48.738;9.106;2023-03-01T07:40:31;0.20;99.90
29855;DHT22;16733;48.738;9.106;2023-03-01T07:42:57;0.20;99.90
29855;DHT22;16733;48.738;9.106;2023-03-01T07:45:24;0.20;99.90
29855;DHT22;16733;48.738;9.106;2023-03-01T07:47:51;0.20;99.90
29855;DHT22;16733;48.738;9.106;2023-03-01T07:50:17;0.20;99.90
29855;DHT22;16733;48.738;9.106;2023-03-01T07:52:45;0.30;99.90
29855;DHT22;16733;48.738;9.106;2023-03-01T07:55:12;0.20;99.90
29855;DHT22;16733;48.738;9.106;2023-03-01T07:57:38;0.20;99.90
29855;DHT22;16733;48.738;9.106;2023-03-01T08:00:04;0.20;99.90
29855;DHT22;16733;48.738;9.106;2023-03-01T08:02:31;0.30;99.90
29855;DHT22;16733;48.738;9.106;2023-03-01T08:04:56;0.40;99.90
29855;DHT22;16733;48.738;9.106;2023-03-01T08:07:22;0.40;99.90
29855;DHT22;16733;48.738;9.106;2023-03-01T08:09:47;0.50;99.90
29855;DHT22;16733;48.738;9.106;2023-03-01T08:12:13;0.50;99.90
29855;DHT22;16733;48.738;9.106;2023-03-01T08:14:38;0.50;99.90
29855;DHT22;16733;48.738;9.106;2023-03-01T08:17:04;0.50;99.90
29855;DHT22;16733;48.738;9.106;2023-03-01T08:19:30;0.60;99.90
29855;DHT22;16733;48.738;9.106;2023-03-01T08:21:56;0.60;99.90
29855;DHT22;16733;48.738;9.106;2023-03-01T08:24:23;0.60;99.90
29855;DHT22;16733;48.738;9.106;2023-03-01T08:26:49;0.60;99.90
29855;DHT22;16733;48.738;9.106;2023-03-01T08:29:15;0.60;99.90
29855;DHT22;16733;48.738;9.106;2023-03-01T08:31:40;0.70;99.90
29855;DHT22;16733;48.738;9.106;2023-03-01T08:34:14;0.70;99.90
29855;DHT22;16733;48.738;9.106;2023-03-01T08:36:45;0.80;99.90
29855;DHT22;16733;48.738;9.106;2023-03-01T08:39:13;0.90;99.90
29855;DHT22;16733;48.738;9.106;2023-03-01T08:41:40;0.90;99.90
29855;DHT22;16733;48.738;9.106;2023-03-01T08:44:06;0.90;99.90
29855;DHT22;16733;48.738;9.106;2023-03-01T08:46:37;0.90;99.90
29855;DHT22;16733;48.738;9.106;2023-03-01T08:49:08;1.00;99.90
29855;DHT22;16733;48.738;9.106;2023-03-01T08:51:34;1.00;99.90
29855;DHT22;16733;48.738;9.106;2023-03-01T08:54:06;1.10;99.90
29855;DHT22;16733;48.738;9.106;2023-03-01T08:56:33;1.20;99.90
29855;DHT22;16733;48.738;9.106;2023-03-01T08:58:59;1.20;99.90
29855;DHT22;16733;48.738;9.106;2023-03-01T09:01:24;1.20;99.90
29855;DHT22;16733;48.738;9.106;2023-03-01T09:03:50;1.30;99.90
29855;DHT22;16733;48.738;9.106;2023-03-01T09:06:16;1.30;99.90
29855;DHT22;16733;48.738;9.106;2023-03-01T09:08:44;1.30;99.90
29855;DHT22;16733;48.738;9.106;2023-03-01T09:11:13;1.30;99.90
29855;DHT22;16733;48.738;9.106;2023-03-01T09:13:39;1.30;99.90
29855;DHT22;16733;48.738;9.106;2023-03-01T09:16:06;1.40;99.90
29855;DHT22;16733;48.738;9.106;2023-03-01T09:18:33;1.40;99.90
29855;DHT22;16733;48.738;9.106;2023-03-01T09:21:14;1.50;99.90
29855;DHT22;16733;48.738;9.106;2023-03-01T09:23:45;1.50;99.90
29855;DHT22;16733;48.738;9.106;2023-03-01T09:26:16;1.60;99.90
29855;DHT22;16733;48.738;9.106;2023-03-01T09:28:44;1.70;99.90
29855;DHT22;16733;48.738;9.106;2023-03-01T09:31:10;1.80;99.90
29855;DHT22;16733;48.738;9.106;2023-03-01T09:33:39;1.80;99.90
29855;DHT22;16733;48.738;9.106;2023-03-01T09:36:07;1.80;99.90
29855;DHT22;16733;48.738;9.106;2023-03-01T09:38:33;1.80;99.90
29855;DHT22;16733;48.738;9.106;2023-03-01T09:41:00;1.90;99.90
29855;DHT22;16733;48.738;9.106;2023-03-01T09:43:31;2.00;99.90
29855;DHT22;16733;48.738;9.106;2023-03-01T09:46:03;1.90;99.90
29855;DHT22;16733;48.738;9.106;2023-03-01T09:48:37;2.00;99.90
29855;DHT22;16733;48.738;9.106;2023-03-01T09:51:08;2.00;99.90
29855;DHT22;16733;48.738;9.106;2023-03-01T09:53:37;2.10;99.90
29855;DHT22;16733;48.738;9.106;2023-03-01T09:56:32;2.20;99.90
29855;DHT22;16733;48.738;9.106;2023-03-01T10:04:37;2.20;99.90
29855;DHT22;16733;48.738;9.106;2023-03-01T10:07:10;2.30;99.90
29855;DHT22;16733;48.738;9.106;2023-03-01T10:09:41;2.40;99.90
29855;DHT22;16733;48.738;9.106;2023-03-01T10:12:22;2.40;99.70
29855;DHT22;16733;48.738;9.106;2023-03-01T10:17:33;2.40;99.00
29855;DHT22;16733;48.738;9.106;2023-03-01T10:20:33;2.50;98.30
29855;DHT22;16733;48.738;9.106;2023-03-01T10:22:59;2.60;98.60
29855;DHT22;16733;48.738;9.106;2023-03-01T10:28:39;2.80;98.90
29855;DHT22;16733;48.738;9.106;2023-03-01T10:31:12;2.90;97.50
29855;DHT22;16733;48.738;9.106;2023-03-01T10:33:38;3.00;97.90
29855;DHT22;16733;48.738;9.106;2023-03-01T10:36:08;3.10;97.60
29855;DHT22;16733;48.738;9.106;2023-03-01T10:38:53;3.10;97.00
29855;DHT22;16733;48.738;9.106;2023-03-01T10:41:23;3.20;96.30
29855;DHT22;16733;48.738;9.106;2023-03-01T10:46:24;3.40;96.40
29855;DHT22;16733;48.738;9.106;2023-03-01T10:51:40;3.50;96.30
29855;DHT22;16733;48.738;9.106;2023-03-01T10:54:31;3.50;96.30
29855;DHT22;16733;48.738;9.106;2023-03-01T10:57:00;3.60;95.60
29855;DHT22;16733;48.738;9.106;2023-03-01T10:59:35;3.70;96.30
29855;DHT22;16733;48.738;9.106;2023-03-01T11:02:36;3.70;95.00
29855;DHT22;16733;48.738;9.106;2023-03-01T11:05:23;3.80;95.40
29855;DHT22;16733;48.738;9.106;2023-03-01T11:07:53;3.90;95.60
29855;DHT22;16733;48.738;9.106;2023-03-01T11:12:54;4.00;95.20
29855;DHT22;16733;48.738;9.106;2023-03-01T11:15:30;4.00;95.40
29855;DHT22;16733;48.738;9.106;2023-03-01T11:17:56;4.10;95.10
29855;DHT22;16733;48.738;9.106;2023-03-01T11:20:35;4.10;94.50
29855;DHT22;16733;48.738;9.106;2023-03-01T11:23:05;4.20;94.00
29855;DHT22;16733;48.738;9.106;2023-03-01T11:25:41;4.20;93.10
29855;DHT22;16733;48.738;9.106;2023-03-01T11:28:12;4.20;93.80
29855;DHT22;16733;48.738;9.106;2023-03-01T11:30:53;4.30;94.30
29855;DHT22;16733;48.738;9.106;2023-03-01T11:38:39;4.70;93.90
29855;DHT22;16733;48.738;9.106;2023-03-01T11:41:18;4.80;93.10
29855;DHT22;16733;48.738;9.106;2023-03-01T12:08:41;5.20;91.90
29855;DHT22;16733;48.738;9.106;2023-03-01T12:16:51;5.30;91.70
29855;DHT22;16733;48.738;9.106;2023-03-01T12:22:30;5.40;92.10
29855;DHT22;16733;48.738;9.106;2023-03-01T12:33:26;5.80;92.00
29855;DHT22;16733;48.738;9.106;2023-03-01T12:36:19;5.90;92.90
29855;DHT22;16733;48.738;9.106;2023-03-01T12:44:39;6.10;91.10
29855;DHT22;16733;48.738;9.106;2023-03-01T12:50:20;6.50;93.30
29855;DHT22;16733;48.738;9.106;2023-03-01T12:52:51;6.70;92.00
29855;DHT22;16733;48.738;9.106;2023-03-01T12:55:33;6.70;92.90
29855;DHT22;16733;48.738;9.106;2023-03-01T12:58:28;6.80;93.10
29855;DHT22;16733;48.738;9.106;2023-03-01T13:09:32;6.80;91.90
29855;DHT22;16733;48.738;9.106;2023-03-01T13:12:00;6.80;90.90
29855;DHT22;16733;48.738;9.106;2023-03-01T13:16:52;7.30;91.70
29855;DHT22;16733;48.738;9.106;2023-03-01T13:19:26;7.40;90.70
29855;DHT22;16733;48.738;9.106;2023-03-01T13:21:54;7.40;88.10
29855;DHT22;16733;48.738;9.106;2023-03-01T13:24:38;7.40;89.70
29855;DHT22;16733;48.738;9.106;2023-03-01T13:34:47;7.10;84.80
29855;DHT22;16733;48.738;9.106;2023-03-01T13:37:32;7.10;86.90
29855;DHT22;16733;48.738;9.106;2023-03-01T13:40:00;7.20;87.30
29855;DHT22;16733;48.738;9.106;2023-03-01T13:42:39;7.30;88.50
29855;DHT22;16733;48.738;9.106;2023-03-01T13:47:42;7.40;87.40
29855;DHT22;16733;48.738;9.106;2023-03-01T13:50:23;7.30;86.00
29855;DHT22;16733;48.738;9.106;2023-03-01T13:53:05;7.40;87.20
29855;DHT22;16733;48.738;9.106;2023-03-01T13:55:40;7.60;88.10
29855;DHT22;16733;48.738;9.106;2023-03-01T13:58:23;7.60;87.90
29855;DHT22;16733;48.738;9.106;2023-03-01T14:00:58;7.80;87.90
29855;DHT22;16733;48.738;9.106;2023-03-01T14:03:25;7.90;87.70
29855;DHT22;16733;48.738;9.106;2023-03-01T14:06:20;7.90;87.80
29855;DHT22;16733;48.738;9.106;2023-03-01T14:08:47;7.80;85.80
29855;DHT22;16733;48.738;9.106;2023-03-01T14:19:17;7.70;87.40
29855;DHT22;16733;48.738;9.106;2023-03-01T14:21:46;7.60;86.30
29855;DHT22;16733;48.738;9.106;2023-03-01T14:24:21;7.50;87.70
29855;DHT22;16733;48.738;9.106;2023-03-01T14:26:47;7.50;89.30
29855;DHT22;16733;48.738;9.106;2023-03-01T14:29:27;7.40;90.00
29855;DHT22;16733;48.738;9.106;2023-03-01T14:34:36;7.30;90.60
29855;DHT22;16733;48.738;9.106;2023-03-01T14:37:17;7.40;91.10
29855;DHT22;16733;48.738;9.106;2023-03-01T14:39:44;7.40;90.30
29855;DHT22;16733;48.738;9.106;2023-03-01T14:42:09;7.40;90.50
29855;DHT22;16733;48.738;9.106;2023-03-01T14:44:35;7.30;90.50
29855;DHT22;16733;48.738;9.106;2023-03-01T14:47:03;7.30;90.80
29855;DHT22;16733;48.738;9.106;2023-03-01T14:49:31;7.30;90.20
29855;DHT22;16733;48.738;9.106;2023-03-01T14:52:04;7.20;89.70
29855;DHT22;16733;48.738;9.106;2023-03-01T14:54:41;7.10;89.10
29855;DHT22;16733;48.738;9.106;2023-03-01T14:57:33;7.20;90.10
29855;DHT22;16733;48.738;9.106;2023-03-01T15:00:02;7.20;90.40
29855;DHT22;16733;48.738;9.106;2023-03-01T15:02:30;7.10;91.00
29855;DHT22;16733;48.738;9.106;2023-03-01T15:04:59;7.10;91.60
29855;DHT22;16733;48.738;9.106;2023-03-01T15:07:35;7.10;91.70
29855;DHT22;16733;48.738;9.106;2023-03-01T15:10:04;7.10;91.40
29855;DHT22;16733;48.738;9.106;2023-03-01T15:12:35;7.10;92.20
29855;DHT22;16733;48.738;9.106;2023-03-01T15:16:04;7.00;91.50
29855;DHT22;16733;48.738;9.106;2023-03-01T15:18:17;7.00;91.70
29855;DHT22;16733;48.738;9.106;2023-03-01T15:20:44;7.00;91.60
29855;DHT22;16733;48.738;9.106;2023-03-01T15:23:29;7.00;91.60
29855;DHT22;16733;48.738;9.106;2023-03-01T15:25:56;7.00;91.10
29855;DHT22;16733;48.738;9.106;2023-03-01T15:28:30;7.00;91.80
29855;DHT22;16733;48.738;9.106;2023-03-01T15:31:16;7.00;91.40
29855;DHT22;16733;48.738;9.106;2023-03-01T15:33:43;7.00;90.90
29855;DHT22;16733;48.738;9.106;2023-03-01T15:36:46;7.00;91.10
29855;DHT22;16733;48.738;9.106;2023-03-01T15:41:55;6.90;91.30
29855;DHT22;16733;48.738;9.106;2023-03-01T15:44:40;6.80;91.40
29855;DHT22;16733;48.738;9.106;2023-03-01T15:47:29;6.70;91.60
29855;DHT22;16733;48.738;9.106;2023-03-01T15:49:55;6.70;91.00
29855;DHT22;16733;48.738;9.106;2023-03-01T15:52:25;6.60;91.70
29855;DHT22;16733;48.738;9.106;2023-03-01T15:54:59;6.70;91.80
29855;DHT22;16733;48.738;9.106;2023-03-01T15:57:25;6.70;92.20
29855;DHT22;16733;48.738;9.106;2023-03-01T15:59:50;6.70;92.00
29855;DHT22;16733;48.738;9.106;2023-03-01T16:02:16;6.60;91.80
29855;DHT22;16733;48.738;9.106;2023-03-01T16:04:42;6.60;91.90
29855;DHT22;16733;48.738;9.106;2023-03-01T16:07:09;6.60;91.80
29855;DHT22;16733;48.738;9.106;2023-03-01T16:09:35;6.60;91.20
29855;DHT22;16733;48.738;9.106;2023-03-01T16:12:01;6.50;91.10
29855;DHT22;16733;48.738;9.106;2023-03-01T16:14:27;6.50;90.80
29855;DHT22;16733;48.738;9.106;2023-03-01T16:16:52;6.50;90.50
29855;DHT22;16733;48.738;9.106;2023-03-01T16:19:18;6.40;90.40
29855;DHT22;16733;48.738;9.106;2023-03-01T16:21:44;6.40;90.10
29855;DHT22;16733;48.738;9.106;2023-03-01T16:24:14;6.30;88.10
29855;DHT22;16733;48.738;9.106;2023-03-01T16:26:39;6.30;88.20
29855;DHT22;16733;48.738;9.106;2023-03-01T16:29:05;6.30;88.10
29855;DHT22;16733;48.738;9.106;2023-03-01T16:31:31;6.30;89.10
29855;DHT22;16733;48.738;9.106;2023-03-01T16:33:58;6.20;89.80
29855;DHT22;16733;48.738;9.106;2023-03-01T16:36:26;6.20;88.60
29855;DHT22;16733;48.738;9.106;2023-03-01T16:38:54;6.20;89.10
29855;DHT22;16733;48.738;9.106;2023-03-01T16:41:21;6.20;89.60
29855;DHT22;16733;48.738;9.106;2023-03-01T16:43:48;6.10;90.30
29855;DHT22;16733;48.738;9.106;2023-03-01T16:46:19;6.10;90.80
29855;DHT22;16733;48.738;9.106;2023-03-01T16:48:46;6.10;91.50
29855;DHT22;16733;48.738;9.106;2023-03-01T16:51:12;6.10;91.40
29855;DHT22;16733;48.738;9.106;2023-03-01T16:53:38;6.00;91.40
29855;DHT22;16733;48.738;9.106;2023-03-01T16:56:06;6.00;91.60
29855;DHT22;16733;48.738;9.106;2023-03-01T16:58:33;5.90;91.30
29855;DHT22;16733;48.738;9.106;2023-03-01T17:01:07;5.90;91.80
29855;DHT22;16733;48.738;9.106;2023-03-01T17:03:33;5.90;92.10
29855;DHT22;16733;48.738;9.106;2023-03-01T17:06:03;5.90;92.40
29855;DHT22;16733;48.738;9.106;2023-03-01T17:08:29;5.80;92.50
29855;DHT22;16733;48.738;9.106;2023-03-01T17:10:55;5.80;92.70
29855;DHT22;16733;48.738;9.106;2023-03-01T17:13:23;5.80;92.80
29855;DHT22;16733;48.738;9.106;2023-03-01T17:15:49;5.70;93.10
29855;DHT22;16733;48.738;9.106;2023-03-01T17:18:14;5.70;93.70
29855;DHT22;16733;48.738;9.106;2023-03-01T17:20:40;5.60;93.60
29855;DHT22;16733;48.738;9.106;2023-03-01T17:23:05;5.60;93.70
29855;DHT22;16733;48.738;9.106;2023-03-01T17:25:31;5.60;94.00
29855;DHT22;16733;48.738;9.106;2023-03-01T17:27:58;5.50;94.30
29855;DHT22;16733;48.738;9.106;2023-03-01T17:30:23;5.50;94.60
29855;DHT22;16733;48.738;9.106;2023-03-01T17:32:49;5.50;94.90
29855;DHT22;16733;48.738;9.106;2023-03-01T17:35:14;5.40;95.20
29855;DHT22;16733;48.738;9.106;2023-03-01T17:37:40;5.40;95.40
29855;DHT22;16733;48.738;9.106;2023-03-01T17:40:11;5.30;95.70
29855;DHT22;16733;48.738;9.106;2023-03-01T17:42:36;5.30;95.90
29855;DHT22;16733;48.738;9.106;2023-03-01T17:45:02;5.30;95.60
29855;DHT22;16733;48.738;9.106;2023-03-01T17:47:28;5.30;95.70
29855;DHT22;16733;48.738;9.106;2023-03-01T17:49:53;5.30;95.80
29855;DHT22;16733;48.738;9.106;2023-03-01T17:52:19;5.20;96.00
29855;DHT22;16733;48.738;9.106;2023-03-01T17:54:48;5.20;96.30
29855;DHT22;16733;48.738;9.106;2023-03-01T17:57:13;5.20;96.60